createdAt,value
2022-11-19T00:00:38.112Z,99130.59
2022-11-19T00:01:16.143Z,99135.25
2022-11-19T00:01:57.393Z,99136.75
2022-11-19T00:02:39.956Z,99137.59
2022-11-19T00:03:21.253Z,99138.75
2022-11-19T00:04:02.861Z,99144.06
2022-11-19T00:04:44.970Z,99125.75
2022-11-19T00:05:22.630Z,99130.09
2022-11-19T00:06:13.447Z,99141.72
2022-11-19T00:06:59.990Z,99137.91
2022-11-19T00:07:48.800Z,99138.75
2022-11-19T00:08:25.284Z,99138.44
2022-11-19T00:09:02.303Z,99138.75
2022-11-19T00:09:40.285Z,99146.72
2022-11-19T00:10:17.712Z,99132.75
2022-11-19T00:10:54.368Z,99135.41
2022-11-19T00:11:32.053Z,99146.06
2022-11-19T00:12:09.265Z,99143.41
2022-11-19T00:12:50.172Z,99140.75
2022-11-19T00:13:27.389Z,99142.41
2022-11-19T00:14:04.929Z,99144.38
2022-11-19T00:14:42.087Z,99137.41
2022-11-19T00:15:19.595Z,99147.34
2022-11-19T00:15:56.677Z,99144.69
2022-11-19T00:16:34.558Z,99140.75
2022-11-19T00:17:12.263Z,99143.25
2022-11-19T00:17:50.305Z,99146.72
2022-11-19T00:18:27.503Z,99150.41
2022-11-19T00:19:04.268Z,99142.72
2022-11-19T00:19:40.929Z,99138.06
2022-11-19T00:20:17.777Z,99141.72
2022-11-19T00:20:54.658Z,99145.91
2022-11-19T00:21:32.416Z,99145.91
2022-11-19T00:22:09.409Z,99148.56
2022-11-19T00:22:46.279Z,99150.56
2022-11-19T00:23:23.286Z,99154.06
2022-11-19T00:23:59.757Z,99154.22
2022-11-19T00:24:36.310Z,99150.72
2022-11-19T00:25:14.052Z,99151.38
2022-11-19T00:25:54.810Z,99148.72
2022-11-19T00:26:34.608Z,99153.91
2022-11-19T00:27:11.497Z,99158.41
2022-11-19T00:27:48.134Z,99150.72
2022-11-19T00:28:25.445Z,99152.53
2022-11-19T00:29:02.363Z,99148.88
2022-11-19T00:29:39.185Z,99150.41
2022-11-19T00:30:40.956Z,99149.56
2022-11-19T00:31:13.286Z,99160.34
2022-11-19T00:31:50.849Z,99146.06
2022-11-19T00:32:28.606Z,99153.38
2022-11-19T00:33:06.413Z,99154.22
2022-11-19T00:33:43.140Z,99154.38
2022-11-19T00:34:19.748Z,99155.03
2022-11-19T00:34:56.217Z,99152.69
2022-11-19T00:35:32.800Z,99160.19
2022-11-19T00:36:09.478Z,99150.56
2022-11-19T00:36:46.539Z,99153.22
2022-11-19T00:37:25.456Z,99154.50
2022-11-19T00:38:03.094Z,99151.03
2022-11-19T00:38:40.860Z,99153.00
2022-11-19T00:39:18.560Z,99151.19
2022-11-19T00:39:55.132Z,99157.34
2022-11-19T00:40:33.069Z,99159.00
2022-11-19T00:41:09.699Z,99152.00
2022-11-19T00:41:54.513Z,99150.31
2022-11-19T00:42:50.899Z,99145.84
2022-11-19T00:43:48.747Z,99151.03
2022-11-19T00:44:41.313Z,99153.69
2022-11-19T00:45:35.279Z,99151.69
2022-11-19T00:46:44.700Z,99152.00
2022-11-19T00:47:37.681Z,99159.69
2022-11-19T00:48:27.742Z,99158.88
2022-11-19T00:49:23.337Z,99151.84
2022-11-19T00:50:13.731Z,99158.00
2022-11-19T00:51:07.068Z,99159.16
2022-11-19T00:52:02.168Z,99161.84
2022-11-19T00:52:52.049Z,99156.66
2022-11-19T00:53:45.242Z,99157.63
2022-11-19T00:54:40.082Z,99154.00
2022-11-19T00:55:34.310Z,99160.00
2022-11-19T00:56:24.748Z,99162.13
2022-11-19T00:57:16.629Z,99159.16
2022-11-19T00:58:10.641Z,99160.97
2022-11-19T00:59:05.059Z,99159.31
2022-11-19T01:00:04.377Z,99162.66
2022-11-19T01:00:59.421Z,99166.16
2022-11-19T01:01:52.562Z,99167.97
2022-11-19T01:02:50.332Z,99166.84
2022-11-19T01:03:45.329Z,99166.84
2022-11-19T01:04:37.687Z,99167.31
2022-11-19T01:05:33.126Z,99168.97
2022-11-19T01:06:26.792Z,99175.59
2022-11-19T01:07:23.729Z,99173.91
2022-11-19T01:08:18.345Z,99180.25
2022-11-19T01:09:11.027Z,99173.47
2022-11-19T01:10:05.282Z,99181.28
2022-11-19T01:10:59.129Z,99174.28
2022-11-19T01:11:54.213Z,99173.97
2022-11-19T01:12:53.517Z,99177.97
2022-11-19T01:13:46.807Z,99185.47
2022-11-19T01:14:39.111Z,99179.69
2022-11-19T01:15:31.900Z,99181.88
2022-11-19T01:16:21.011Z,99183.88
2022-11-19T01:17:14.007Z,99183.97
2022-11-19T01:19:09.742Z,99188.91
2022-11-19T01:20:06.175Z,99190.19
2022-11-19T01:20:56.906Z,99190.91
2022-11-19T01:21:50.823Z,99188.25
2022-11-19T01:22:49.783Z,99191.88
2022-11-19T01:23:45.499Z,99188.53
2022-11-19T01:24:36.645Z,99183.38
2022-11-19T01:25:28.358Z,99183.38
2022-11-19T01:26:19.341Z,99185.03
2022-11-19T01:27:15.494Z,99184.34
2022-11-19T01:28:10.345Z,99191.88
2022-11-19T01:29:03.906Z,99189.91
2022-11-19T01:29:56.087Z,99188.25
2022-11-19T01:30:48.932Z,99195.38
2022-11-19T01:31:42.058Z,99192.56
2022-11-19T01:32:37.331Z,99189.06
2022-11-19T01:33:31.007Z,99191.56
2022-11-19T01:34:24.926Z,99196.06
2022-11-19T01:35:14.290Z,99191.06
2022-11-19T01:36:10.101Z,99185.72
2022-11-19T01:37:03.813Z,99188.41
2022-11-19T01:38:58.426Z,99181.22
2022-11-19T01:39:52.100Z,99188.25
2022-11-19T01:40:49.717Z,99186.56
2022-11-19T01:41:42.922Z,99192.72
2022-11-19T01:42:44.806Z,99192.56
2022-11-19T01:43:45.333Z,99188.41
2022-11-19T01:44:54.603Z,99190.03
2022-11-19T01:45:46.484Z,99189.06
2022-11-19T01:46:39.831Z,99187.38
2022-11-19T01:47:30.053Z,99186.56
2022-11-19T01:48:13.189Z,99183.91
2022-11-19T01:48:53.830Z,99182.22
2022-11-19T01:49:46.897Z,99185.88
2022-11-19T01:50:45.784Z,99183.22
2022-11-19T01:51:42.844Z,99181.53
2022-11-19T01:52:34.250Z,99187.16
2022-11-19T01:54:29.563Z,99191.22
2022-11-19T01:55:19.255Z,99185.19
2022-11-19T01:56:14.983Z,99187.16
2022-11-19T01:57:08.018Z,99188.19
2022-11-19T01:58:05.998Z,99186.19
2022-11-19T01:59:02.472Z,99195.81
2022-11-19T01:59:56.212Z,99188.84
2022-11-19T02:00:49.875Z,99193.50
2022-11-19T02:01:42.303Z,99194.19
2022-11-19T02:02:35.519Z,99186.34
2022-11-19T02:03:26.727Z,99197.50
2022-11-19T02:04:21.076Z,99189.69
2022-11-19T02:05:15.563Z,99197.50
2022-11-19T02:06:10.575Z,99196.84
2022-11-19T02:07:01.715Z,99191.50
2022-11-19T02:08:01.061Z,99197.50
2022-11-19T02:08:42.846Z,99201.16
2022-11-19T02:10:39.252Z,99196.69
2022-11-19T02:11:24.252Z,99207.34
2022-11-19T02:12:07.370Z,99204.81
2022-11-19T02:13:27.096Z,99204.66
2022-11-19T02:14:11.076Z,99205.50
2022-11-19T02:15:09.833Z,99206.47
2022-11-19T02:16:00.047Z,99210.81
2022-11-19T02:16:53.537Z,99207.47
2022-11-19T02:17:52.143Z,99212.13
2022-11-19T02:18:45.363Z,99212.66
2022-11-19T02:19:59.539Z,99218.13
2022-11-19T02:21:01.218Z,99220.50
2022-11-19T02:21:54.499Z,99220.78
2022-11-19T02:22:58.948Z,99225.28
2022-11-19T02:23:51.104Z,99224.59
2022-11-19T02:24:36.760Z,99227.63
2022-11-19T02:25:45.286Z,99224.97
2022-11-19T02:26:34.332Z,99221.78
2022-11-19T02:27:19.125Z,99231.44
2022-11-19T02:28:13.515Z,99228.94
2022-11-19T02:29:08.123Z,99231.75
2022-11-19T02:30:10.093Z,99220.94
2022-11-19T02:31:06.189Z,99228.09
2022-11-19T02:32:01.329Z,99225.44
2022-11-19T02:33:04.530Z,99228.09
2022-11-19T02:33:53.541Z,99228.09
2022-11-19T02:34:34.786Z,99226.13
2022-11-19T02:35:38.778Z,99227.25
2022-11-19T02:36:43.204Z,99227.09
2022-11-19T02:37:36.351Z,99231.06
2022-11-19T02:38:23.568Z,99228.25
2022-11-19T02:39:21.202Z,99234.25
2022-11-19T02:40:27.194Z,99233.44
2022-11-19T02:41:39.963Z,99226.13
2022-11-19T02:42:45.580Z,99229.75
2022-11-19T02:43:44.325Z,99234.41
2022-11-19T02:44:35.059Z,99224.75
2022-11-19T02:45:41.129Z,99223.09
2022-11-19T02:46:30.547Z,99229.22
2022-11-19T02:47:28.801Z,99231.91
2022-11-19T02:48:14.829Z,99217.47
2022-11-19T02:49:02.874Z,99224.75
2022-11-19T02:49:52.667Z,99220.41
2022-11-19T02:50:44.509Z,99218.44
2022-11-19T02:51:36.616Z,99217.47
2022-11-19T02:52:34.574Z,99223.75
2022-11-19T02:53:26.052Z,99218.44
2022-11-19T02:54:14.240Z,99215.78
2022-11-19T02:55:08.958Z,99223.59
2022-11-19T02:56:01.688Z,99221.78
2022-11-19T02:56:56.458Z,99213.25
2022-11-19T02:57:53.718Z,99223.09
2022-11-19T02:58:44.942Z,99225.03
2022-11-19T02:59:51.418Z,99228.41
2022-11-19T03:00:40.981Z,99229.22
2022-11-19T03:01:30.067Z,99226.72
2022-11-19T03:02:19.279Z,99225.75
2022-11-19T03:03:21.108Z,99222.06
2022-11-19T03:04:15.474Z,99221.25
2022-11-19T03:05:06.059Z,99217.59
2022-11-19T03:05:57.252Z,99225.03
2022-11-19T03:06:52.408Z,99222.94
2022-11-19T03:08:46.325Z,99218.28
2022-11-19T03:09:43.030Z,99224.75
2022-11-19T03:10:33.426Z,99223.91
2022-11-19T03:11:14.222Z,99220.28
2022-11-19T03:12:04.781Z,99222.22
2022-11-19T03:13:02.509Z,99221.09
2022-11-19T03:13:59.849Z,99224.75
2022-11-19T03:14:56.146Z,99220.41
2022-11-19T03:15:50.732Z,99227.41
2022-11-19T03:16:41.057Z,99238.03
2022-11-19T03:17:42.350Z,99226.56
2022-11-19T03:18:32.577Z,99226.72
2022-11-19T03:19:16.825Z,99226.56
2022-11-19T03:20:16.736Z,99233.72
2022-11-19T03:21:08.885Z,99222.38
2022-11-19T03:22:11.967Z,99221.41
2022-11-19T03:23:07.932Z,99224.75
2022-11-19T03:24:02.323Z,99229.22
2022-11-19T03:24:58.168Z,99231.06
2022-11-19T03:25:54.557Z,99223.09
2022-11-19T03:27:03.267Z,99232.72
2022-11-19T03:27:56.522Z,99232.56
2022-11-19T03:28:46.218Z,99235.38
2022-11-19T03:29:37.199Z,99231.91
2022-11-19T03:30:34.880Z,99235.38
2022-11-19T03:32:09.631Z,99230.06
2022-11-19T03:33:04.399Z,99236.25
2022-11-19T03:33:56.097Z,99235.38
2022-11-19T03:34:46.592Z,99238.03
2022-11-19T03:35:40.150Z,99234.84
2022-11-19T03:36:33.366Z,99241.88
2022-11-19T03:37:26.221Z,99236.53
2022-11-19T03:38:18.012Z,99230.38
2022-11-19T03:39:09.623Z,99230.38
2022-11-19T03:40:07.633Z,99223.38
2022-11-19T03:41:01.591Z,99231.66
2022-11-19T03:41:54.174Z,99228.56
2022-11-19T03:42:48.740Z,99228.72
2022-11-19T03:43:40.624Z,99227.69
2022-11-19T03:44:22.770Z,99230.38
2022-11-19T03:45:17.515Z,99230.50
2022-11-19T03:46:11.525Z,99227.69
2022-11-19T03:47:02.864Z,99229.53
2022-11-19T03:47:53.010Z,99238.34
2022-11-19T03:48:45.769Z,99234.03
2022-11-19T03:49:39.872Z,99240.03
2022-11-19T03:50:30.024Z,99229.53
2022-11-19T03:51:22.053Z,99238.50
2022-11-19T03:52:12.372Z,99238.50
2022-11-19T03:53:06.043Z,99238.69
2022-11-19T03:54:01.145Z,99244.97
2022-11-19T03:54:54.676Z,99244.00
2022-11-19T03:55:56.858Z,99247.50
2022-11-19T03:56:51.054Z,99244.69
2022-11-19T03:57:48.054Z,99239.50
2022-11-19T03:58:40.180Z,99239.50
2022-11-19T03:59:32.824Z,99246.66
2022-11-19T04:00:25.130Z,99249.47
2022-11-19T04:02:21.218Z,99245.97
2022-11-19T04:03:11.841Z,99251.13
2022-11-19T04:04:08.250Z,99247.50
2022-11-19T04:04:59.491Z,99252.66
2022-11-19T04:05:55.080Z,99250.81
2022-11-19T04:06:48.523Z,99253.63
2022-11-19T04:07:41.288Z,99251.81
2022-11-19T04:08:36.521Z,99256.31
2022-11-19T04:09:28.044Z,99254.66
2022-11-19T04:10:22.578Z,99256.59
2022-11-19T04:12:41.845Z,99265.44
2022-11-19T04:13:37.419Z,99261.78
2022-11-19T04:14:28.685Z,99270.22
2022-11-19T04:15:24.331Z,99272.72
2022-11-19T04:16:19.269Z,99269.09
2022-11-19T04:17:10.970Z,99268.94
2022-11-19T04:18:02.556Z,99267.09
2022-11-19T04:18:53.233Z,99268.25
2022-11-19T04:19:45.046Z,99266.28
2022-11-19T04:20:39.294Z,99267.97
2022-11-19T04:21:32.374Z,99267.09
2022-11-19T04:22:23.978Z,99271.59
2022-11-19T04:23:17.933Z,99267.25
2022-11-19T04:24:12.810Z,99267.09
2022-11-19T04:25:05.969Z,99272.28
2022-11-19T04:27:04.683Z,99268.25
2022-11-19T04:27:56.464Z,99271.59
2022-11-19T04:28:48.745Z,99280.56
2022-11-19T04:29:43.277Z,99279.72
2022-11-19T04:30:37.840Z,99275.09
2022-11-19T04:31:42.863Z,99277.06
2022-11-19T04:32:35.686Z,99280.84
2022-11-19T04:33:28.034Z,99282.84
2022-11-19T04:34:20.344Z,99287.19
2022-11-19T04:35:15.388Z,99281.72
2022-11-19T04:36:12.727Z,99288.38
2022-11-19T04:37:05.915Z,99290.22
2022-11-19T04:38:02.526Z,99289.41
2022-11-19T04:38:58.197Z,99288.69
2022-11-19T04:39:49.816Z,99288.69
2022-11-19T04:40:41.314Z,99293.88
2022-11-19T04:42:34.903Z,99288.53
2022-11-19T04:43:29.192Z,99289.53
2022-11-19T04:44:23.201Z,99295.69
2022-11-19T04:45:17.529Z,99293.34
2022-11-19T04:46:13.285Z,99294.00
2022-11-19T04:47:10.965Z,99297.53
2022-11-19T04:48:01.012Z,99298.66
2022-11-19T04:48:54.672Z,99295.03
2022-11-19T04:49:49.144Z,99296.00
2022-11-19T04:50:42.981Z,99298.81
2022-11-19T04:52:09.631Z,99300.50
2022-11-19T04:53:02.358Z,99297.81
2022-11-19T04:53:55.526Z,99296.97
2022-11-19T04:54:49.417Z,99296.28
2022-11-19T04:55:46.583Z,99299.78
2022-11-19T04:56:49.273Z,99298.81
2022-11-19T04:57:40.541Z,99305.81
2022-11-19T04:58:23.589Z,99298.94
2022-11-19T04:59:17.190Z,99300.78
2022-11-19T05:00:10.801Z,99304.13
2022-11-19T05:01:08.196Z,99305.09
2022-11-19T05:02:04.090Z,99308.78
2022-11-19T05:02:54.144Z,99311.56
2022-11-19T05:03:48.557Z,99303.44
2022-11-19T05:04:41.938Z,99303.31
2022-11-19T05:05:34.108Z,99302.28
2022-11-19T05:06:34.417Z,99303.16
2022-11-19T05:07:28.927Z,99299.09
2022-11-19T05:08:19.123Z,99301.63
2022-11-19T05:09:08.946Z,99298.81
2022-11-19T05:09:55.872Z,99303.16
2022-11-19T05:10:46.990Z,99303.31
2022-11-19T05:11:45.115Z,99307.75
2022-11-19T05:12:39.066Z,99306.09
2022-11-19T05:13:31.808Z,99307.75
2022-11-19T05:14:30.525Z,99309.44
2022-11-19T05:15:19.689Z,99309.31
2022-11-19T05:16:17.362Z,99316.47
2022-11-19T05:17:13.311Z,99312.78
2022-11-19T05:18:09.235Z,99305.81
2022-11-19T05:19:05.172Z,99317.28
2022-11-19T05:19:58.631Z,99314.09
2022-11-19T05:20:51.570Z,99307.75
2022-11-19T05:21:48.319Z,99319.25
2022-11-19T05:22:41.548Z,99320.25
2022-11-19T05:23:34.241Z,99318.72
2022-11-19T05:24:30.050Z,99308.91
2022-11-19T05:25:21.407Z,99318.59
2022-11-19T05:26:21.301Z,99320.53
2022-11-19T05:27:13.382Z,99326.88
2022-11-19T05:28:05.832Z,99320.69
2022-11-19T05:29:00.070Z,99323.34
2022-11-19T05:29:53.340Z,99324.06
2022-11-19T05:30:42.703Z,99327.69
2022-11-19T05:32:38.909Z,99325.72
2022-11-19T05:33:33.765Z,99327.69
2022-11-19T05:34:24.039Z,99329.38
2022-11-19T05:35:14.561Z,99334.84
2022-11-19T05:36:05.832Z,99330.66
2022-11-19T05:37:59.950Z,99334.69
2022-11-19T05:38:57.147Z,99333.84
2022-11-19T05:39:50.594Z,99335.69
2022-11-19T05:40:45.465Z,99338.34
2022-11-19T05:41:43.005Z,99332.47
2022-11-19T05:42:35.875Z,99335.97
2022-11-19T05:43:28.212Z,99341.16
2022-11-19T05:44:24.992Z,99336.13
2022-11-19T05:45:18.441Z,99337.66
2022-11-19T05:46:10.843Z,99336.94
2022-11-19T05:47:10.096Z,99335.97
2022-11-19T05:48:02.384Z,99344.63
2022-11-19T05:48:54.179Z,99346.63
2022-11-19T05:49:48.202Z,99337.66
2022-11-19T05:50:43.669Z,99346.47
2022-11-19T05:52:11.925Z,99349.81
2022-11-19T05:53:05.376Z,99351.78
2022-11-19T05:53:56.520Z,99354.31
2022-11-19T05:54:49.040Z,99364.94
2022-11-19T05:55:42.645Z,99357.94
2022-11-19T05:56:34.544Z,99347.28
2022-11-19T05:57:30.381Z,99359.78
2022-11-19T05:58:23.515Z,99350.41
2022-11-19T05:59:16.685Z,99365.53
2022-11-19T06:00:09.140Z,99366.38
2022-11-19T06:01:04.962Z,99365.25
2022-11-19T06:02:03.691Z,99368.88
2022-11-19T06:02:55.378Z,99368.59
2022-11-19T06:03:50.641Z,99369.75
2022-11-19T06:04:45.185Z,99372.41
2022-11-19T06:05:42.835Z,99385.69
2022-11-19T06:06:39.888Z,99375.88
2022-11-19T06:08:39.488Z,99376.19
2022-11-19T06:09:31.943Z,99374.19
2022-11-19T06:10:22.054Z,99370.72
2022-11-19T06:11:14.623Z,99372.41
2022-11-19T06:12:10.722Z,99375.75
2022-11-19T06:13:06.019Z,99375.88
2022-11-19T06:14:00.639Z,99374.53
2022-11-19T06:14:50.556Z,99377.31
2022-11-19T06:15:43.649Z,99375.34
2022-11-19T06:16:35.260Z,99380.22
2022-11-19T06:18:31.530Z,99377.19
2022-11-19T06:19:23.270Z,99377.88
2022-11-19T06:20:11.349Z,99379.53
2022-11-19T06:21:10.868Z,99382.31
2022-11-19T06:22:08.255Z,99381.06
2022-11-19T06:23:04.047Z,99389.88
2022-11-19T06:23:52.999Z,99392.69
2022-11-19T06:24:43.027Z,99386.69
2022-11-19T06:25:31.632Z,99390.03
2022-11-19T06:26:23.537Z,99390.16
2022-11-19T06:27:15.346Z,99395.34
2022-11-19T06:28:13.850Z,99389.03
2022-11-19T06:29:05.713Z,99395.34
2022-11-19T06:29:59.113Z,99389.72
2022-11-19T06:30:51.142Z,99390.59
2022-11-19T06:31:45.880Z,99393.41
2022-11-19T06:32:39.943Z,99390.72
2022-11-19T06:33:39.531Z,99386.53
2022-11-19T06:34:32.006Z,99399.16
2022-11-19T06:35:26.238Z,99385.56
2022-11-19T06:36:26.176Z,99401.38
2022-11-19T06:37:21.729Z,99398.00
2022-11-19T06:38:14.597Z,99394.66
2022-11-19T06:39:11.116Z,99386.81
2022-11-19T06:40:03.691Z,99399.97
2022-11-19T06:40:57.067Z,99400.81
2022-11-19T06:41:52.742Z,99404.03
2022-11-19T06:42:50.776Z,99398.84
2022-11-19T06:43:42.245Z,99402.66
2022-11-19T06:44:40.797Z,99399.84
2022-11-19T06:45:35.228Z,99401.53
2022-11-19T06:46:28.180Z,99401.53
2022-11-19T06:47:23.678Z,99405.16
2022-11-19T06:48:16.757Z,99410.19
2022-11-19T06:49:08.488Z,99409.50
2022-11-19T06:52:08.613Z,99413.28
2022-11-19T06:53:02.914Z,99407.97
2022-11-19T06:53:56.748Z,99403.47
2022-11-19T06:54:54.954Z,99413.00
2022-11-19T06:55:49.906Z,99414.13
2022-11-19T06:56:44.105Z,99412.31
2022-11-19T06:57:39.619Z,99414.81
2022-11-19T06:58:34.422Z,99416.78
2022-11-19T06:59:27.556Z,99421.81
2022-11-19T07:00:29.910Z,99413.97
2022-11-19T07:01:19.846Z,99421.13
2022-11-19T07:02:11.415Z,99418.16
2022-11-19T07:03:07.118Z,99422.81
2022-11-19T07:04:00.266Z,99423.09
2022-11-19T07:04:56.581Z,99431.75
2022-11-19T07:06:53.900Z,99432.59
2022-11-19T07:07:49.583Z,99430.06
2022-11-19T07:08:42.388Z,99426.59
2022-11-19T07:09:36.348Z,99425.75
2022-11-19T07:10:33.345Z,99432.75
2022-11-19T07:12:13.772Z,99427.41
2022-11-19T07:13:08.297Z,99437.22
2022-11-19T07:14:03.179Z,99430.06
2022-11-19T07:14:55.844Z,99433.75
2022-11-19T07:15:50.908Z,99431.91
2022-11-19T07:16:48.163Z,99431.91
2022-11-19T07:17:47.740Z,99438.91
2022-11-19T07:18:37.660Z,99432.06
2022-11-19T07:19:29.601Z,99441.72
2022-11-19T07:20:25.601Z,99434.72
2022-11-19T07:21:19.211Z,99449.72
2022-11-19T07:22:10.279Z,99445.22
2022-11-19T07:23:08.682Z,99448.72
2022-11-19T07:24:01.452Z,99445.06
2022-11-19T07:24:56.692Z,99453.19
2022-11-19T07:25:47.074Z,99451.50
2022-11-19T07:26:44.055Z,99444.38
2022-11-19T07:27:38.071Z,99442.56
2022-11-19T07:29:33.534Z,99438.06
2022-11-19T07:30:22.528Z,99446.19
2022-11-19T07:31:20.098Z,99442.69
2022-11-19T07:32:13.395Z,99449.84
2022-11-19T07:33:10.182Z,99446.19
2022-11-19T07:34:06.705Z,99440.03
2022-11-19T07:34:57.961Z,99444.38
2022-11-19T07:35:51.042Z,99446.19
2022-11-19T07:36:46.443Z,99439.91
2022-11-19T07:37:42.470Z,99443.38
2022-11-19T07:39:37.092Z,99443.38
2022-11-19T07:40:33.605Z,99449.03
2022-11-19T07:41:22.202Z,99455.19
2022-11-19T07:42:13.287Z,99442.84
2022-11-19T07:43:10.146Z,99457.69
2022-11-19T07:44:03.274Z,99456.00
2022-11-19T07:44:55.075Z,99455.19
2022-11-19T07:45:43.239Z,99459.66
2022-11-19T07:46:33.147Z,99450.81
2022-11-19T07:47:24.367Z,99460.50
2022-11-19T07:48:22.180Z,99461.31
2022-11-19T07:49:14.362Z,99460.34
2022-11-19T07:50:00.235Z,99459.34
2022-11-19T07:50:55.171Z,99459.34
2022-11-19T07:51:47.140Z,99455.72
2022-11-19T07:52:39.055Z,99466.66
2022-11-19T07:53:37.963Z,99465.00
2022-11-19T07:54:26.896Z,99471.16
2022-11-19T07:55:17.264Z,99466.50
2022-11-19T07:56:05.768Z,99471.00
2022-11-19T07:56:55.781Z,99471.28
2022-11-19T07:57:44.617Z,99475.63
2022-11-19T07:58:40.840Z,99474.78
2022-11-19T07:59:31.644Z,99483.44
2022-11-19T08:00:26.832Z,99471.97
2022-11-19T08:02:12.035Z,99471.16
2022-11-19T08:03:08.485Z,99468.34
2022-11-19T08:04:05.572Z,99471.69
2022-11-19T08:05:00.998Z,99476.31
2022-11-19T08:05:52.766Z,99472.97
2022-11-19T08:06:45.698Z,99480.09
2022-11-19T08:07:41.913Z,99479.25
2022-11-19T08:08:42.380Z,99478.44
2022-11-19T08:09:36.519Z,99482.06
2022-11-19T08:10:33.198Z,99489.22
2022-11-19T08:11:25.957Z,99488.94
2022-11-19T08:12:17.180Z,99486.41
2022-11-19T08:13:10.253Z,99485.41
2022-11-19T08:15:08.032Z,99481.09
2022-11-19T08:15:59.321Z,99483.03
2022-11-19T08:16:52.795Z,99486.56
2022-11-19T08:17:46.195Z,99487.69
2022-11-19T08:19:38.073Z,99490.19
2022-11-19T08:20:32.969Z,99484.88
2022-11-19T08:21:24.857Z,99490.19
2022-11-19T08:22:16.578Z,99481.09
2022-11-19T08:23:16.682Z,99481.25
2022-11-19T08:24:08.663Z,99487.41
2022-11-19T08:25:03.988Z,99491.03
2022-11-19T08:25:55.081Z,99492.72
2022-11-19T08:26:45.858Z,99495.38
2022-11-19T08:27:37.175Z,99495.53
2022-11-19T08:28:33.829Z,99490.06
2022-11-19T08:29:27.328Z,99488.50
2022-11-19T08:30:20.012Z,99491.88
2022-11-19T08:31:20.894Z,99494.84
2022-11-19T08:32:10.216Z,99497.22
2022-11-19T08:32:59.869Z,99492.84
2022-11-19T08:33:58.221Z,99490.88
2022-11-19T08:34:47.271Z,99503.34
2022-11-19T08:35:34.454Z,99495.38
2022-11-19T08:36:26.526Z,99497.50
2022-11-19T08:37:16.881Z,99505.47
2022-11-19T08:38:08.693Z,99498.19
2022-11-19T08:39:06.355Z,99500.84
2022-11-19T08:39:56.739Z,99499.16
2022-11-19T08:40:50.042Z,99507.84
2022-11-19T08:41:44.752Z,99500.00
2022-11-19T08:42:39.213Z,99508.13
2022-11-19T08:43:31.219Z,99504.47
2022-11-19T08:45:25.537Z,99510.50
2022-11-19T08:46:17.960Z,99505.34
2022-11-19T08:47:14.555Z,99508.00
2022-11-19T08:48:06.485Z,99509.78
2022-11-19T08:49:05.494Z,99506.31
2022-11-19T08:49:57.937Z,99510.66
2022-11-19T08:50:48.844Z,99513.88
2022-11-19T08:51:38.460Z,99512.16
2022-11-19T08:52:31.164Z,99503.22
2022-11-19T08:53:25.772Z,99512.31
2022-11-19T08:55:17.623Z,99516.81
2022-11-19T08:56:12.748Z,99508.81
2022-11-19T08:57:07.034Z,99516.13
2022-11-19T08:58:02.688Z,99522.13
2022-11-19T08:59:03.051Z,99513.16
2022-11-19T09:00:05.866Z,99524.78
2022-11-19T09:00:55.058Z,99521.16
2022-11-19T09:01:46.941Z,99517.50
2022-11-19T09:02:37.560Z,99520.28
2022-11-19T09:03:27.385Z,99523.09
2022-11-19T09:04:19.107Z,99525.47
2022-11-19T09:05:14.752Z,99531.09
2022-11-19T09:06:09.568Z,99534.47
2022-11-19T09:07:59.169Z,99544.38
2022-11-19T09:08:51.224Z,99534.75
2022-11-19T09:09:43.838Z,99539.06
2022-11-19T09:10:42.688Z,99546.06
2022-11-19T09:11:39.881Z,99536.41
2022-11-19T09:12:33.792Z,99545.38
2022-11-19T09:13:29.725Z,99551.41
2022-11-19T09:14:26.967Z,99547.03
2022-11-19T09:15:21.471Z,99547.03
2022-11-19T09:16:22.980Z,99549.00
2022-11-19T09:17:22.561Z,99545.53
2022-11-19T09:18:14.838Z,99551.53
2022-11-19T09:19:05.641Z,99548.72
2022-11-19T09:19:58.025Z,99548.72
2022-11-19T09:20:53.631Z,99550.72
2022-11-19T09:22:52.405Z,99538.09
2022-11-19T09:23:45.426Z,99554.06
2022-11-19T09:24:42.264Z,99551.41
2022-11-19T09:25:40.032Z,99547.03
2022-11-19T09:26:39.124Z,99553.09
2022-11-19T09:27:33.073Z,99552.09
2022-11-19T09:28:26.557Z,99547.75
2022-11-19T09:29:20.383Z,99552.22
2022-11-19T09:30:12.359Z,99552.22
2022-11-19T09:31:25.740Z,99556.84
2022-11-19T09:32:13.987Z,99549.56
2022-11-19T09:33:10.109Z,99559.53
2022-11-19T09:34:03.198Z,99553.22
2022-11-19T09:34:58.073Z,99551.69
2022-11-19T09:35:48.769Z,99557.69
2022-11-19T09:36:42.982Z,99547.91
2022-11-19T09:37:27.309Z,99554.88
2022-11-19T09:38:20.819Z,99562.19
2022-11-19T09:39:15.151Z,99566.38
2022-11-19T09:40:06.569Z,99556.84
2022-11-19T09:41:01.399Z,99563.88
2022-11-19T09:41:49.387Z,99563.88
2022-11-19T09:42:37.761Z,99567.50
2022-11-19T09:43:40.903Z,99570.84
2022-11-19T09:44:30.023Z,99567.50
2022-11-19T09:45:11.532Z,99567.66
2022-11-19T09:45:52.950Z,99574.66
2022-11-19T09:46:46.207Z,99571.00
2022-11-19T09:47:36.678Z,99574.38
2022-11-19T09:48:36.204Z,99572.81
2022-11-19T09:49:34.463Z,99575.63
2022-11-19T09:50:25.060Z,99575.47
2022-11-19T09:51:20.466Z,99572.97
2022-11-19T09:52:11.860Z,99568.34
2022-11-19T09:53:08.796Z,99572.81
2022-11-19T09:54:03.699Z,99576.44
2022-11-19T09:55:03.391Z,99578.97
2022-11-19T09:55:52.849Z,99578.28
2022-11-19T09:56:49.602Z,99580.13
2022-11-19T09:57:41.030Z,99573.78
2022-11-19T09:58:27.683Z,99586.13
2022-11-19T09:59:30.101Z,99570.84
2022-11-19T10:00:34.516Z,99582.63
2022-11-19T10:02:10.002Z,99587.97
2022-11-19T10:03:04.822Z,99585.16
2022-11-19T10:03:57.001Z,99580.94
2022-11-19T10:04:51.371Z,99585.44
2022-11-19T10:05:49.173Z,99579.38
2022-11-19T10:06:39.294Z,99586.13
2022-11-19T10:07:35.082Z,99582.03
2022-11-19T10:08:42.426Z,99585.28
2022-11-19T10:09:35.380Z,99590.88
2022-11-19T10:10:37.964Z,99588.94
2022-11-19T10:11:25.727Z,99589.91
2022-11-19T10:12:32.869Z,99596.09
2022-11-19T10:13:39.814Z,99582.88
2022-11-19T10:14:43.010Z,99589.03
2022-11-19T10:15:44.616Z,99586.25
2022-11-19T10:16:33.530Z,99582.88
2022-11-19T10:17:32.866Z,99585.53
2022-11-19T10:18:27.491Z,99599.69
2022-11-19T10:19:23.629Z,99594.34
2022-11-19T10:20:30.133Z,99588.22
2022-11-19T10:21:13.270Z,99594.50
2022-11-19T10:22:09.979Z,99591.69
2022-11-19T10:23:01.961Z,99594.25
2022-11-19T10:24:05.936Z,99589.19
2022-11-19T10:24:57.375Z,99596.09
2022-11-19T10:25:57.844Z,99597.16
2022-11-19T10:26:49.337Z,99593.41
2022-11-19T10:27:49.874Z,99603.31
2022-11-19T10:28:46.521Z,99604.31
2022-11-19T10:29:35.997Z,99599.13
2022-11-19T10:30:35.826Z,99595.63
2022-11-19T10:32:21.182Z,99600.53
2022-11-19T10:33:06.846Z,99590.88
2022-11-19T10:34:12.841Z,99588.94
2022-11-19T10:35:06.072Z,99598.00
2022-11-19T10:36:07.122Z,99598.75
2022-11-19T10:37:08.254Z,99606.81
2022-11-19T10:38:04.847Z,99604.16
2022-11-19T10:39:08.025Z,99599.00
2022-11-19T10:40:02.083Z,99601.66
2022-11-19T10:41:04.903Z,99597.16
2022-11-19T10:41:57.359Z,99600.81
2022-11-19T10:42:47.877Z,99607.09
2022-11-19T10:43:43.859Z,99597.16
2022-11-19T10:44:38.956Z,99596.91
2022-11-19T10:45:47.129Z,99593.53
2022-11-19T10:46:40.363Z,99594.25
2022-11-19T10:47:44.250Z,99589.19
2022-11-19T10:48:44.280Z,99594.25
2022-11-19T10:49:41.258Z,99592.84
2022-11-19T10:50:38.392Z,99598.00